METAR AND TAF INFORMATION
METAR FOR KLXY
ADDS - METARS form results

(2039 UTC 17 August 2018)
Data provider http://aviationweather.gov/adds/metars/
 
METAR text: KLXY 172035Z AUTO 23007KT 10SM CLR 36/18 A3001 RMK AO2 T03630175
Conditions at: KLXY (MEXIA LIMESTONE , TX, US) observed 2035 UTC 17 August 2018
Temperature: 36.3°C (97°F)
Dewpoint: 17.5°C (64°F) [RH = 33%]
Pressure (altimeter): 30.01 inches Hg (1016.3 mb)
Winds: from the SW (230 degrees) at 8 MPH (7 knots; 3.6 m/s)
Visibility: 10 or more miles (16+ km)
Ceiling: at least 12,000 feet AGL
Clouds: sky clear below 12,000 feet AGL
Weather: automated observation with no human augmentation;
there may or may not be significant weather present at this time

METAR text: KLXY 172015Z AUTO 20006G20KT 10SM CLR 36/18 A3002 RMK AO2 T03630177
Conditions at: KLXY (MEXIA LIMESTONE , TX, US) observed 2015 UTC 17 August 2018
Temperature: 36.3°C (97°F)
Dewpoint: 17.7°C (64°F) [RH = 34%]
Pressure (altimeter): 30.02 inches Hg (1016.7 mb)
Winds: from the SSW (200 degrees) at 7 MPH (6 knots; 3.1 m/s)
gusting to 23 MPH (20 knots; 10.4 m/s)
Visibility: 10 or more miles (16+ km)
Ceiling: at least 12,000 feet AGL
Clouds: sky clear below 12,000 feet AGL
Weather: automated observation with no human augmentation;
there may or may not be significant weather present at this time

METAR text: KLXY 171955Z AUTO 21008G20KT 10SM CLR 36/18 A3002 RMK AO2 T03550180
Conditions at: KLXY (MEXIA LIMESTONE , TX, US) observed 1955 UTC 17 August 2018
Temperature: 35.5°C (96°F)
Dewpoint: 18.0°C (64°F) [RH = 36%]
Pressure (altimeter): 30.02 inches Hg (1016.7 mb)
Winds: from the SSW (210 degrees) at 9 MPH (8 knots; 4.2 m/s)
gusting to 23 MPH (20 knots; 10.4 m/s)
Visibility: 10 or more miles (16+ km)
Ceiling: at least 12,000 feet AGL
Clouds: sky clear below 12,000 feet AGL
Weather: automated observation with no human augmentation;
there may or may not be significant weather present at this time

 AIRPORT MAP

 RUNWAY INFORMATION
Runway 18 Runway length 4002 ft Runway width 60 ft
Runway elevation 544 ft Runway displaced threshold 0 ft Runway heading 189
Runway 36 Runway length 4002 ft Runway width 60 ft
Runway elevation 533 ft Runway displaced threshold 0 ft Runway heading 9

 AIRPORT FREQUENCIES
Type A/D Name WACO APP/D Frequency 135.2 MHZ
Type UNIC Name CTAF/UNICO Frequency 122.8 MHZ

 AIRPORT NEAR NAVIGATION AIDS


... ... ... ... ... ...

© Copyright 2017 All Rights Reserved. Virtual NATO is in no way affiliated with NATO or any of the NATO Members

NATO Virtual is a volunteer not for profit group of friends with the common interest in promoting enjoyment and education through the simulation of military operations and procedure through the use of operating standards within several flight simulation platforms.

Powered by Virtual Airlines Manager [v2.6.2] Customized by Virtual NATO